createdAt,value
2023-05-25T00:01:34.932Z,96414.00
2023-05-25T00:04:39.906Z,96417.69
2023-05-25T00:07:42.558Z,96411.69
2023-05-25T00:10:44.211Z,96413.31
2023-05-25T00:13:46.095Z,96409.81
2023-05-25T00:16:52.056Z,96413.31
2023-05-25T00:19:57.979Z,96411.00
2023-05-25T00:23:02.342Z,96408.31
2023-05-25T00:26:04.543Z,96412.97
2023-05-25T00:29:07.250Z,96414.50
2023-05-25T00:32:09.394Z,96412.66
2023-05-25T00:35:12.032Z,96410.00
2023-05-25T00:38:16.265Z,96405.09
2023-05-25T00:41:19.087Z,96426.88
2023-05-25T00:44:22.057Z,96421.34
2023-05-25T00:47:25.134Z,96428.22
2023-05-25T00:50:45.989Z,96429.22
2023-05-25T00:53:48.126Z,96428.22
2023-05-25T00:57:02.566Z,96420.34
2023-05-25T01:00:11.324Z,96420.88
2023-05-25T01:03:17.734Z,96434.41
2023-05-25T01:06:22.692Z,96430.75
2023-05-25T01:09:27.235Z,96426.25
2023-05-25T01:12:31.234Z,96435.41
2023-05-25T01:15:33.510Z,96433.72
2023-05-25T01:18:36.128Z,96420.69
2023-05-25T01:21:55.024Z,96411.13
2023-05-25T01:25:02.550Z,96421.66
2023-05-25T01:28:09.418Z,96417.97
2023-05-25T01:31:12.394Z,96419.28
2023-05-25T01:34:15.955Z,96413.56
2023-05-25T01:37:20.419Z,96413.88
2023-05-25T01:40:23.676Z,96416.75
2023-05-25T01:43:25.565Z,96415.38
2023-05-25T01:46:37.004Z,96423.25
2023-05-25T01:49:52.175Z,96426.75
2023-05-25T01:53:03.174Z,96423.38
2023-05-25T01:56:11.620Z,96429.44
2023-05-25T01:59:16.488Z,96429.44
2023-05-25T02:02:19.898Z,96420.41
2023-05-25T02:05:21.507Z,96420.41
2023-05-25T02:08:23.837Z,96412.53
2023-05-25T02:11:26.537Z,96419.72
2023-05-25T02:14:29.426Z,96413.38
2023-05-25T02:17:31.570Z,96416.22
2023-05-25T02:20:34.437Z,96406.84
2023-05-25T02:23:36.098Z,96413.88
2023-05-25T02:26:41.485Z,96402.97
2023-05-25T02:29:43.976Z,96415.84
2023-05-25T02:32:46.174Z,96414.03
2023-05-25T02:35:49.428Z,96404.00
2023-05-25T02:38:52.182Z,96404.81
2023-05-25T02:41:54.565Z,96403.00
2023-05-25T02:44:56.218Z,96399.47
2023-05-25T02:47:58.449Z,96410.34
2023-05-25T02:51:00.693Z,96408.81
2023-05-25T02:54:03.016Z,96412.50
2023-05-25T02:57:08.359Z,96421.50
2023-05-25T03:00:12.433Z,96423.53
2023-05-25T03:03:14.442Z,96429.31
2023-05-25T03:06:17.617Z,96431.34
2023-05-25T03:09:20.902Z,96436.84
2023-05-25T03:12:24.933Z,96439.66
2023-05-25T03:15:27.229Z,96431.94
2023-05-25T03:18:29.350Z,96444.94
2023-05-25T03:21:33.114Z,96445.44
2023-05-25T03:24:35.457Z,96433.50
2023-05-25T03:27:40.202Z,96427.81
2023-05-25T03:30:43.109Z,96437.97
2023-05-25T03:33:45.660Z,96434.06
2023-05-25T03:36:49.223Z,96449.28
2023-05-25T03:39:52.948Z,96442.09
2023-05-25T03:42:54.908Z,96442.41
2023-05-25T03:45:56.723Z,96440.59
2023-05-25T03:48:58.347Z,96438.22
2023-05-25T03:52:01.360Z,96448.75
2023-05-25T03:55:05.219Z,96443.56
2023-05-25T03:58:06.886Z,96446.06
2023-05-25T04:01:10.578Z,96440.59
2023-05-25T04:04:12.256Z,96445.59
2023-05-25T04:07:14.348Z,96448.28
2023-05-25T04:10:16.205Z,96446.28
2023-05-25T04:13:18.280Z,96444.31
2023-05-25T04:16:21.835Z,96437.78
2023-05-25T04:19:24.146Z,96440.16
2023-05-25T04:22:26.601Z,96450.56
2023-05-25T04:25:32.179Z,96448.41
2023-05-25T04:28:34.071Z,96446.56
2023-05-25T04:31:46.277Z,96454.66
2023-05-25T04:34:48.648Z,96461.19
2023-05-25T04:37:56.970Z,96464.41
2023-05-25T04:41:02.646Z,96449.03
2023-05-25T04:44:09.207Z,96450.41
2023-05-25T04:47:19.750Z,96457.94
2023-05-25T04:50:21.560Z,96462.66
2023-05-25T04:53:23.270Z,96463.19
2023-05-25T04:56:26.853Z,96453.50
2023-05-25T04:59:28.516Z,96461.72
2023-05-25T05:02:30.965Z,96459.59
2023-05-25T05:05:35.794Z,96465.28
2023-05-25T05:08:39.226Z,96462.97
2023-05-25T05:11:41.526Z,96467.03
2023-05-25T05:14:43.436Z,96460.34
2023-05-25T05:17:45.141Z,96464.34
2023-05-25T05:20:48.526Z,96468.25
2023-05-25T05:23:51.852Z,96472.13
2023-05-25T05:26:58.367Z,96464.59
2023-05-25T05:30:06.624Z,96466.47
2023-05-25T05:33:08.853Z,96452.63
2023-05-25T05:36:19.387Z,96462.66
2023-05-25T05:39:21.147Z,96471.88
2023-05-25T05:42:23.318Z,96470.25
2023-05-25T05:45:24.962Z,96478.50
2023-05-25T05:48:26.704Z,96483.88
2023-05-25T05:51:30.220Z,96483.22
2023-05-25T05:54:32.713Z,96485.22
2023-05-25T05:57:40.312Z,96478.41
2023-05-25T06:00:42.351Z,96481.91
2023-05-25T06:03:45.650Z,96482.44
2023-05-25T06:06:47.366Z,96480.44
2023-05-25T06:09:49.489Z,96485.63
2023-05-25T06:12:51.759Z,96482.47
2023-05-25T06:15:53.985Z,96487.16
2023-05-25T06:18:59.006Z,96486.34
2023-05-25T06:22:01.900Z,96494.69
2023-05-25T06:25:04.648Z,96477.09
2023-05-25T06:28:06.824Z,96490.03
2023-05-25T06:31:08.491Z,96486.16
2023-05-25T06:34:11.322Z,96494.19
2023-05-25T06:37:14.890Z,96496.19
2023-05-25T06:40:17.143Z,96497.88
2023-05-25T06:43:21.386Z,96495.19
2023-05-25T06:46:43.916Z,96496.19
2023-05-25T06:49:45.696Z,96493.00
2023-05-25T06:52:48.279Z,96494.97
2023-05-25T06:55:50.002Z,96493.13
2023-05-25T06:58:52.053Z,96496.81
2023-05-25T07:01:54.122Z,96493.94
2023-05-25T07:04:56.958Z,96495.09
2023-05-25T07:07:59.056Z,96497.91
2023-05-25T07:11:01.170Z,96501.75
2023-05-25T07:14:05.266Z,96489.66
2023-05-25T07:17:07.376Z,96497.19
2023-05-25T07:20:13.216Z,96501.69
2023-05-25T07:23:15.040Z,96496.63
2023-05-25T07:26:17.166Z,96498.13
2023-05-25T07:29:19.235Z,96504.31
2023-05-25T07:32:21.034Z,96499.59
2023-05-25T07:35:22.799Z,96504.94
2023-05-25T07:38:24.939Z,96510.44
2023-05-25T07:41:27.408Z,96515.09
2023-05-25T07:44:30.137Z,96510.53
2023-05-25T07:47:31.922Z,96515.34
2023-05-25T07:50:34.427Z,96519.72
2023-05-25T07:53:36.444Z,96526.34
2023-05-25T07:56:39.824Z,96529.81
2023-05-25T07:59:41.563Z,96522.22
2023-05-25T08:02:44.090Z,96529.50
2023-05-25T08:05:46.588Z,96521.84
2023-05-25T08:08:49.991Z,96528.47
2023-05-25T08:11:55.983Z,96534.81
2023-05-25T08:15:06.182Z,96535.84
2023-05-25T08:18:08.392Z,96532.91
2023-05-25T08:21:10.542Z,96529.47
2023-05-25T08:24:12.236Z,96533.28
2023-05-25T08:27:14.646Z,96540.63
2023-05-25T08:30:17.011Z,96529.66
2023-05-25T08:33:18.649Z,96542.72
2023-05-25T08:36:20.218Z,96533.31
2023-05-25T08:39:23.939Z,96544.66
2023-05-25T08:42:26.412Z,96537.03
2023-05-25T08:45:35.679Z,96550.44
2023-05-25T08:48:42.507Z,96551.53
2023-05-25T08:51:54.699Z,96551.00
2023-05-25T08:55:02.709Z,96561.03
2023-05-25T08:58:32.971Z,96549.31
2023-05-25T09:01:42.188Z,96562.03
2023-05-25T09:04:44.990Z,96560.91
2023-05-25T09:07:47.897Z,96556.25
2023-05-25T09:10:52.327Z,96558.19
2023-05-25T09:13:54.254Z,96562.16
2023-05-25T09:16:58.292Z,96567.81
2023-05-25T09:20:00.015Z,96573.69
2023-05-25T09:23:03.184Z,96572.84
2023-05-25T09:26:05.446Z,96568.94
2023-05-25T09:29:07.088Z,96565.94
2023-05-25T09:32:09.590Z,96573.28
2023-05-25T09:35:13.553Z,96584.81
2023-05-25T09:38:16.774Z,96586.31
2023-05-25T09:41:19.910Z,96585.53
2023-05-25T09:44:22.039Z,96581.63
2023-05-25T09:47:24.126Z,96580.38
2023-05-25T09:50:29.911Z,96584.19
2023-05-25T09:53:32.134Z,96599.63
2023-05-25T09:56:34.703Z,96593.81
2023-05-25T09:59:36.857Z,96589.53
2023-05-25T10:02:39.004Z,96591.47
2023-05-25T10:05:41.254Z,96589.00
2023-05-25T10:08:48.980Z,96601.72
2023-05-25T10:11:52.949Z,96600.53
2023-05-25T10:14:55.101Z,96597.03
2023-05-25T10:17:58.851Z,96600.81
2023-05-25T10:21:04.408Z,96591.88
2023-05-25T10:24:14.991Z,96599.28
2023-05-25T10:27:28.041Z,96607.81
2023-05-25T10:30:32.793Z,96608.97
2023-05-25T10:33:34.798Z,96599.00
2023-05-25T10:36:38.231Z,96605.28
2023-05-25T10:39:43.030Z,96586.63
2023-05-25T10:42:45.589Z,96600.56
2023-05-25T10:45:48.665Z,96592.13
2023-05-25T10:49:00.606Z,96593.19
2023-05-25T10:52:06.208Z,96595.72
2023-05-25T10:55:09.310Z,96595.31
2023-05-25T10:58:16.177Z,96594.13
2023-05-25T11:01:18.665Z,96581.88
2023-05-25T11:04:20.701Z,96593.16
2023-05-25T11:07:22.824Z,96582.81
2023-05-25T11:10:50.378Z,96581.59
2023-05-25T11:13:55.006Z,96577.69
2023-05-25T11:17:18.329Z,96582.94
2023-05-25T11:20:27.640Z,96576.13
2023-05-25T11:23:30.737Z,96580.31
2023-05-25T11:26:33.983Z,96582.41
2023-05-25T11:29:37.277Z,96569.50
2023-05-25T11:32:50.735Z,96576.16
2023-05-25T11:35:55.220Z,96569.31
2023-05-25T11:42:05.080Z,96558.84
2023-05-25T11:45:11.178Z,96553.66
2023-05-25T11:48:14.752Z,96556.59
2023-05-25T11:51:16.961Z,96555.56
2023-05-25T11:54:40.436Z,96558.06
2023-05-25T11:57:42.720Z,96554.69
2023-05-25T12:00:44.599Z,96553.00
2023-05-25T12:03:49.158Z,96549.25
2023-05-25T12:06:50.861Z,96546.09
2023-05-25T12:10:07.461Z,96539.41
2023-05-25T12:13:11.339Z,96536.22
2023-05-25T12:16:13.691Z,96523.91
2023-05-25T12:19:16.983Z,96527.59
2023-05-25T12:22:19.107Z,96526.72
2023-05-25T12:25:24.450Z,96526.19
2023-05-25T12:28:26.889Z,96532.81
2023-05-25T12:31:31.632Z,96534.81
2023-05-25T12:34:34.370Z,96540.03
2023-05-25T12:37:36.651Z,96534.16
2023-05-25T12:40:38.422Z,96527.38
2023-05-25T12:43:43.111Z,96530.56
2023-05-25T12:46:45.125Z,96538.31
2023-05-25T12:49:51.276Z,96538.78
2023-05-25T12:53:02.558Z,96538.88
2023-05-25T12:56:04.628Z,96543.34
2023-05-25T12:59:15.987Z,96532.09
2023-05-25T13:02:18.171Z,96525.09
2023-05-25T13:05:32.902Z,96532.78
2023-05-25T13:08:34.660Z,96528.84
2023-05-25T13:11:37.271Z,96525.22
2023-05-25T13:14:38.879Z,96522.78
2023-05-25T13:17:43.381Z,96516.78
2023-05-25T13:20:49.882Z,96512.59
2023-05-25T13:23:53.360Z,96514.94
2023-05-25T13:26:54.987Z,96508.72
2023-05-25T13:29:58.363Z,96505.66
2023-05-25T13:33:00.737Z,96509.63
2023-05-25T13:36:09.557Z,96508.91
2023-05-25T13:39:13.717Z,96496.53
2023-05-25T13:42:16.004Z,96501.31
2023-05-25T13:45:18.835Z,96513.84
2023-05-25T13:48:21.622Z,96506.19
2023-05-25T13:51:23.546Z,96514.72
2023-05-25T13:54:25.199Z,96499.88
2023-05-25T13:57:27.265Z,96517.69
2023-05-25T14:00:29.829Z,96501.44
2023-05-25T14:03:32.294Z,96506.06
2023-05-25T14:06:34.994Z,96495.25
2023-05-25T14:09:36.757Z,96496.56
2023-05-25T14:12:38.517Z,96500.00
2023-05-25T14:15:40.683Z,96489.09
2023-05-25T14:18:42.983Z,96488.63
2023-05-25T14:21:45.526Z,96483.88
2023-05-25T14:24:48.024Z,96491.19
2023-05-25T14:27:50.142Z,96488.44
2023-05-25T14:30:51.881Z,96488.56
2023-05-25T14:33:53.841Z,96482.59
2023-05-25T14:36:55.940Z,96482.69
2023-05-25T14:39:58.120Z,96474.59
2023-05-25T14:42:59.749Z,96489.78
2023-05-25T14:46:01.588Z,96495.34
2023-05-25T14:49:03.833Z,96487.91
2023-05-25T14:52:06.236Z,96484.81
2023-05-25T14:55:09.267Z,96486.75
2023-05-25T14:58:11.737Z,96484.56
2023-05-25T15:01:15.039Z,96486.31
2023-05-25T15:04:17.685Z,96492.19
2023-05-25T15:07:20.653Z,96484.28
2023-05-25T15:10:22.826Z,96492.63
2023-05-25T15:13:24.402Z,96490.91
2023-05-25T15:19:28.750Z,96491.09
2023-05-25T15:22:30.968Z,96484.72
2023-05-25T15:25:35.528Z,96486.28
2023-05-25T15:28:38.233Z,96484.91
2023-05-25T15:31:39.924Z,96484.16
2023-05-25T15:34:42.055Z,96484.66
2023-05-25T15:37:44.147Z,96488.81
2023-05-25T15:40:45.791Z,96485.34
2023-05-25T15:43:58.854Z,96488.00
2023-05-25T15:47:00.692Z,96481.94
2023-05-25T15:50:02.358Z,96488.00
2023-05-25T15:53:04.236Z,96485.94
2023-05-25T15:56:06.484Z,96477.00
2023-05-25T15:59:08.665Z,96482.69
2023-05-25T16:02:10.604Z,96479.03
2023-05-25T16:05:12.376Z,96483.47
2023-05-25T16:08:14.354Z,96488.41
2023-05-25T16:11:17.333Z,96477.94
2023-05-25T16:14:18.959Z,96485.09
2023-05-25T16:17:20.715Z,96485.66
2023-05-25T16:20:22.905Z,96491.47
2023-05-25T16:23:25.371Z,96490.91
2023-05-25T16:26:27.248Z,96486.44
2023-05-25T16:29:29.503Z,96485.78
2023-05-25T16:32:32.670Z,96493.69
2023-05-25T16:35:34.924Z,96499.66
2023-05-25T16:38:36.707Z,96497.44
2023-05-25T16:41:38.383Z,96491.44
2023-05-25T16:44:40.002Z,96497.25
2023-05-25T16:47:41.933Z,96501.06
2023-05-25T16:50:43.818Z,96499.41
2023-05-25T16:53:46.113Z,96507.13
2023-05-25T16:56:48.189Z,96503.66
2023-05-25T16:59:51.744Z,96512.88
2023-05-25T17:02:55.240Z,96512.38
2023-05-25T17:05:57.407Z,96506.22
2023-05-25T17:09:00.938Z,96513.31
2023-05-25T17:12:03.721Z,96510.72
2023-05-25T17:15:05.820Z,96511.03
2023-05-25T17:18:08.119Z,96505.09
2023-05-25T17:21:09.842Z,96506.84
2023-05-25T17:24:11.693Z,96512.88
2023-05-25T17:27:13.738Z,96507.75
2023-05-25T17:30:15.956Z,96507.81
2023-05-25T17:33:18.045Z,96511.69
2023-05-25T17:36:19.687Z,96503.81
2023-05-25T17:39:21.344Z,96501.63
2023-05-25T17:42:22.961Z,96503.25
2023-05-25T17:45:25.611Z,96498.34
2023-05-25T17:48:27.878Z,96500.09
2023-05-25T17:51:30.238Z,96508.91
2023-05-25T17:54:32.156Z,96504.59
2023-05-25T17:57:34.223Z,96508.47
2023-05-25T18:00:35.864Z,96507.91
2023-05-25T18:03:37.641Z,96505.09
2023-05-25T18:06:39.340Z,96510.81
2023-05-25T18:09:41.017Z,96517.16
2023-05-25T18:12:44.545Z,96518.50
2023-05-25T18:15:46.784Z,96523.00
2023-05-25T18:18:48.997Z,96529.75
2023-05-25T18:21:52.668Z,96525.91
2023-05-25T18:24:54.442Z,96529.06
2023-05-25T18:27:56.704Z,96522.66
2023-05-25T18:30:58.405Z,96532.09
2023-05-25T18:34:00.364Z,96538.84
2023-05-25T18:37:02.092Z,96537.03
2023-05-25T18:40:04.395Z,96542.97
2023-05-25T18:43:07.785Z,96543.19
2023-05-25T18:46:09.973Z,96536.34
2023-05-25T18:49:11.775Z,96544.09
2023-05-25T18:52:14.256Z,96537.88
2023-05-25T18:55:16.224Z,96539.16
2023-05-25T18:58:18.856Z,96542.53
2023-05-25T19:01:21.042Z,96544.44
2023-05-25T19:04:22.933Z,96552.41
2023-05-25T19:07:24.748Z,96545.09
2023-05-25T19:10:27.479Z,96551.81
2023-05-25T19:13:29.353Z,96551.38
2023-05-25T19:16:31.577Z,96555.31
2023-05-25T19:19:33.618Z,96565.50
2023-05-25T19:22:35.785Z,96566.31
2023-05-25T19:25:37.577Z,96572.31
2023-05-25T19:28:39.700Z,96576.66
2023-05-25T19:31:41.392Z,96571.78
2023-05-25T19:34:43.044Z,96575.69
2023-05-25T19:37:44.691Z,96590.19
2023-05-25T19:40:46.961Z,96588.88
2023-05-25T19:43:49.014Z,96595.06
2023-05-25T19:46:51.217Z,96590.22
2023-05-25T19:49:57.537Z,96604.25
2023-05-25T19:53:01.108Z,96609.19
2023-05-25T19:56:04.075Z,96600.91
2023-05-25T19:59:06.251Z,96605.72
2023-05-25T20:02:08.023Z,96607.31
2023-05-25T20:05:11.644Z,96613.50
2023-05-25T20:08:13.430Z,96616.53
2023-05-25T20:11:15.222Z,96614.16
2023-05-25T20:14:19.306Z,96612.78
2023-05-25T20:17:22.289Z,96612.47
2023-05-25T20:20:23.995Z,96620.50
2023-05-25T20:23:26.111Z,96619.97
2023-05-25T20:26:28.228Z,96619.47
2023-05-25T20:29:31.442Z,96617.72
2023-05-25T20:32:33.611Z,96625.22
2023-05-25T20:35:37.841Z,96626.34
2023-05-25T20:38:39.538Z,96624.63
2023-05-25T20:41:41.848Z,96625.72
2023-05-25T20:44:43.892Z,96625.00
2023-05-25T20:47:46.108Z,96639.41
2023-05-25T20:50:48.362Z,96632.25
2023-05-25T20:53:50.659Z,96640.41
2023-05-25T20:56:53.416Z,96636.13
2023-05-25T20:59:59.569Z,96645.97
2023-05-25T21:03:02.587Z,96645.03
2023-05-25T21:06:05.394Z,96643.28
2023-05-25T21:09:07.538Z,96636.94
2023-05-25T21:12:09.553Z,96640.31
2023-05-25T21:15:11.864Z,96629.25
2023-05-25T21:18:13.955Z,96636.03
2023-05-25T21:21:16.187Z,96642.78
2023-05-25T21:24:18.352Z,96635.44
2023-05-25T21:27:21.013Z,96634.13
2023-05-25T21:30:24.230Z,96624.53
2023-05-25T21:33:25.954Z,96629.44
2023-05-25T21:36:28.005Z,96635.88
2023-05-25T21:39:30.752Z,96636.03
2023-05-25T21:42:32.378Z,96639.75
2023-05-25T21:45:34.924Z,96639.75
2023-05-25T21:48:36.838Z,96637.72
2023-05-25T21:51:38.771Z,96630.66
2023-05-25T21:54:41.546Z,96636.88
2023-05-25T21:57:43.666Z,96644.13
2023-05-25T22:00:45.825Z,96636.88
2023-05-25T22:03:48.529Z,96637.72
2023-05-25T22:06:51.150Z,96642.91
2023-05-25T22:09:53.294Z,96646.44
2023-05-25T22:12:55.130Z,96650.63
2023-05-25T22:15:57.119Z,96643.75
2023-05-25T22:18:59.217Z,96645.25
2023-05-25T22:22:01.874Z,96638.56
2023-05-25T22:25:04.900Z,96649.63
2023-05-25T22:28:07.361Z,96641.38
2023-05-25T22:31:09.253Z,96649.06
2023-05-25T22:34:11.404Z,96649.91
2023-05-25T22:37:14.103Z,96654.09
2023-05-25T22:40:16.934Z,96649.91
2023-05-25T22:43:18.991Z,96650.94
2023-05-25T22:46:21.154Z,96646.09
2023-05-25T22:49:23.279Z,96646.16
2023-05-25T22:52:25.497Z,96650.22
2023-05-25T22:55:27.624Z,96645.38
2023-05-25T22:58:29.702Z,96649.63
2023-05-25T23:01:32.116Z,96647.81
2023-05-25T23:04:37.418Z,96646.19
2023-05-25T23:07:39.584Z,96648.94
2023-05-25T23:10:41.718Z,96653.34
2023-05-25T23:13:43.849Z,96647.66
2023-05-25T23:16:48.580Z,96646.50
2023-05-25T23:19:50.817Z,96651.06
2023-05-25T23:22:52.408Z,96651.22
2023-05-25T23:25:54.101Z,96653.25
2023-05-25T23:28:56.351Z,96644.72
2023-05-25T23:31:58.150Z,96644.03
2023-05-25T23:35:00.777Z,96653.47
2023-05-25T23:38:02.954Z,96652.50
2023-05-25T23:41:04.832Z,96657.88
2023-05-25T23:44:07.691Z,96652.53
2023-05-25T23:47:09.699Z,96655.75
2023-05-25T23:50:12.351Z,96658.09
2023-05-25T23:53:14.521Z,96670.91
2023-05-25T23:56:17.329Z,96668.06
2023-05-25T23:59:19.931Z,96671.94
